sensor_id;sensor_type;location;lat;lon;timestamp;pressure;altitude;pressure_sealevel;temperature;humidity
47592;BME280;33317;33.356;-117.184;2024-03-17T00:00:00;99298.25;;;29.22;25.63
47592;BME280;33317;33.356;-117.184;2024-03-17T00:02:29;99300.37;;;29.39;25.71
47592;BME280;33317;33.356;-117.184;2024-03-17T00:04:58;99302.50;;;29.62;25.74
47592;BME280;33317;33.356;-117.184;2024-03-17T00:07:26;99300.04;;;29.35;25.74
47592;BME280;33317;33.356;-117.184;2024-03-17T00:09:54;99298.26;;;29.60;25.75
47592;BME280;33317;33.356;-117.184;2024-03-17T00:12:23;99299.11;;;29.31;25.75
47592;BME280;33317;33.356;-117.184;2024-03-17T00:14:51;99301.12;;;29.35;25.77
47592;BME280;33317;33.356;-117.184;2024-03-17T00:17:19;99302.74;;;29.62;25.77
47592;BME280;33317;33.356;-117.184;2024-03-17T00:19:49;99302.08;;;29.31;25.78
47592;BME280;33317;33.356;-117.184;2024-03-17T00:22:17;99304.62;;;29.07;25.78
47592;BME280;33317;33.356;-117.184;2024-03-17T00:24:45;99306.67;;;29.03;25.81
47592;BME280;33317;33.356;-117.184;2024-03-17T00:27:15;99311.83;;;29.48;25.84
47592;BME280;33317;33.356;-117.184;2024-03-17T00:29:44;99318.34;;;29.44;25.79
47592;BME280;33317;33.356;-117.184;2024-03-17T00:32:12;99321.96;;;29.42;25.88
47592;BME280;33317;33.356;-117.184;2024-03-17T00:34:41;99319.91;;;28.91;25.87
47592;BME280;33317;33.356;-117.184;2024-03-17T00:37:09;99316.61;;;29.08;25.98
47592;BME280;33317;33.356;-117.184;2024-03-17T00:39:37;99313.64;;;29.30;26.03
47592;BME280;33317;33.356;-117.184;2024-03-17T00:42:05;99311.80;;;29.26;26.09
47592;BME280;33317;33.356;-117.184;2024-03-17T00:44:34;99310.95;;;29.24;26.13
47592;BME280;33317;33.356;-117.184;2024-03-17T00:47:02;99316.62;;;29.22;26.14
47592;BME280;33317;33.356;-117.184;2024-03-17T00:49:31;99324.21;;;29.20;26.16
47592;BME280;33317;33.356;-117.184;2024-03-17T00:51:59;99329.92;;;29.17;26.16
47592;BME280;33317;33.356;-117.184;2024-03-17T00:54:27;99329.66;;;29.13;26.08
47592;BME280;33317;33.356;-117.184;2024-03-17T00:56:56;99328.88;;;29.04;26.20
47592;BME280;33317;33.356;-117.184;2024-03-17T00:59:25;99325.36;;;29.20;26.31
47592;BME280;33317;33.356;-117.184;2024-03-17T01:01:53;99329.02;;;28.91;26.35
47592;BME280;33317;33.356;-117.184;2024-03-17T01:04:21;99331.00;;;29.07;26.42
47592;BME280;33317;33.356;-117.184;2024-03-17T01:06:50;99327.66;;;28.96;26.52
47592;BME280;33317;33.356;-117.184;2024-03-17T01:09:18;99324.90;;;28.87;26.59
47592;BME280;33317;33.356;-117.184;2024-03-17T01:11:46;99328.09;;;28.86;26.60
47592;BME280;33317;33.356;-117.184;2024-03-17T01:14:15;99327.46;;;28.79;26.74
47592;BME280;33317;33.356;-117.184;2024-03-17T01:16:43;99328.63;;;28.69;26.81
47592;BME280;33317;33.356;-117.184;2024-03-17T01:19:16;99327.22;;;28.62;26.85
47592;BME280;33317;33.356;-117.184;2024-03-17T01:21:45;99331.19;;;28.57;26.96
47592;BME280;33317;33.356;-117.184;2024-03-17T01:24:13;99334.63;;;28.50;27.11
47592;BME280;33317;33.356;-117.184;2024-03-17T01:26:41;99336.89;;;28.42;27.20
47592;BME280;33317;33.356;-117.184;2024-03-17T01:29:11;99337.31;;;28.62;27.31
47592;BME280;33317;33.356;-117.184;2024-03-17T01:31:39;99336.92;;;28.53;27.37
47592;BME280;33317;33.356;-117.184;2024-03-17T01:34:07;99339.00;;;28.46;27.43
47592;BME280;33317;33.356;-117.184;2024-03-17T01:36:36;99343.28;;;28.12;27.50
47592;BME280;33317;33.356;-117.184;2024-03-17T01:39:04;99346.76;;;28.27;27.59
47592;BME280;33317;33.356;-117.184;2024-03-17T01:41:32;99350.14;;;28.15;27.71
47592;BME280;33317;33.356;-117.184;2024-03-17T01:44:01;99350.60;;;28.06;27.78
47592;BME280;33317;33.356;-117.184;2024-03-17T01:46:29;99351.06;;;28.01;27.80
47592;BME280;33317;33.356;-117.184;2024-03-17T01:48:58;99353.58;;;27.94;27.89
47592;BME280;33317;33.356;-117.184;2024-03-17T01:51:27;99351.38;;;27.84;27.99
47592;BME280;33317;33.356;-117.184;2024-03-17T01:53:56;99351.17;;;27.78;28.06
47592;BME280;33317;33.356;-117.184;2024-03-17T01:56:25;99350.24;;;27.96;28.10
47592;BME280;33317;33.356;-117.184;2024-03-17T01:58:53;99352.25;;;27.67;28.19
47592;BME280;33317;33.356;-117.184;2024-03-17T02:01:22;99351.01;;;27.65;28.21
47592;BME280;33317;33.356;-117.184;2024-03-17T02:03:50;99349.80;;;27.55;28.29
47592;BME280;33317;33.356;-117.184;2024-03-17T02:06:19;99356.93;;;27.67;28.38
47592;BME280;33317;33.356;-117.184;2024-03-17T02:08:48;99357.57;;;27.63;28.44
47592;BME280;33317;33.356;-117.184;2024-03-17T02:11:25;99353.78;;;27.42;28.40
47592;BME280;33317;33.356;-117.184;2024-03-17T02:13:54;99353.54;;;27.39;28.67
47592;BME280;33317;33.356;-117.184;2024-03-17T02:16:24;99350.96;;;27.46;28.75
47592;BME280;33317;33.356;-117.184;2024-03-17T02:18:55;99349.72;;;27.31;29.02
47592;BME280;33317;33.356;-117.184;2024-03-17T02:21:24;99353.50;;;27.27;29.10
47592;BME280;33317;33.356;-117.184;2024-03-17T02:23:53;99356.05;;;27.43;29.19
47592;BME280;33317;33.356;-117.184;2024-03-17T02:26:22;99357.12;;;27.02;29.40
47592;BME280;33317;33.356;-117.184;2024-03-17T02:28:51;99357.30;;;26.66;29.54
47592;BME280;33317;33.356;-117.184;2024-03-17T02:31:20;99360.07;;;26.85;29.61
47592;BME280;33317;33.356;-117.184;2024-03-17T02:33:48;99362.93;;;26.64;29.79
47592;BME280;33317;33.356;-117.184;2024-03-17T02:36:17;99361.27;;;26.45;29.92
47592;BME280;33317;33.356;-117.184;2024-03-17T02:38:46;99360.45;;;26.48;29.88
47592;BME280;33317;33.356;-117.184;2024-03-17T02:41:15;99362.20;;;26.37;29.92
47592;BME280;33317;33.356;-117.184;2024-03-17T02:43:44;99361.58;;;26.30;30.79
47592;BME280;33317;33.356;-117.184;2024-03-17T02:46:13;99356.39;;;26.44;30.55
47592;BME280;33317;33.356;-117.184;2024-03-17T02:48:43;99361.05;;;25.75;30.77
47592;BME280;33317;33.356;-117.184;2024-03-17T02:51:12;99362.10;;;25.95;30.85
47592;BME280;33317;33.356;-117.184;2024-03-17T02:53:41;99366.40;;;26.01;31.02
47592;BME280;33317;33.356;-117.184;2024-03-17T02:56:09;99368.14;;;25.53;31.44
47592;BME280;33317;33.356;-117.184;2024-03-17T02:58:38;99366.67;;;25.72;31.40
47592;BME280;33317;33.356;-117.184;2024-03-17T03:01:07;99366.17;;;25.66;31.46
47592;BME280;33317;33.356;-117.184;2024-03-17T03:03:36;99370.88;;;25.65;31.25
47592;BME280;33317;33.356;-117.184;2024-03-17T03:06:05;99376.91;;;25.92;31.21
47592;BME280;33317;33.356;-117.184;2024-03-17T03:08:33;99377.39;;;25.49;31.73
47592;BME280;33317;33.356;-117.184;2024-03-17T03:11:02;99383.45;;;25.64;31.56
47592;BME280;33317;33.356;-117.184;2024-03-17T03:13:30;99385.89;;;25.47;31.76
47592;BME280;33317;33.356;-117.184;2024-03-17T03:15:59;99386.74;;;25.04;32.27
47592;BME280;33317;33.356;-117.184;2024-03-17T03:18:28;99391.46;;;25.03;32.35
47592;BME280;33317;33.356;-117.184;2024-03-17T03:20:56;99395.03;;;24.84;32.62
47592;BME280;33317;33.356;-117.184;2024-03-17T03:23:28;99397.83;;;24.75;32.58
47592;BME280;33317;33.356;-117.184;2024-03-17T03:25:57;99399.67;;;24.78;32.28
47592;BME280;33317;33.356;-117.184;2024-03-17T03:28:26;99403.71;;;24.56;32.85
47592;BME280;33317;33.356;-117.184;2024-03-17T03:30:55;99404.32;;;24.84;32.29
47592;BME280;33317;33.356;-117.184;2024-03-17T03:33:25;99406.17;;;24.54;32.93
47592;BME280;33317;33.356;-117.184;2024-03-17T03:35:53;99409.49;;;24.58;32.91
47592;BME280;33317;33.356;-117.184;2024-03-17T03:38:22;99408.54;;;24.31;33.22
47592;BME280;33317;33.356;-117.184;2024-03-17T03:40:51;99413.02;;;24.46;32.93
47592;BME280;33317;33.356;-117.184;2024-03-17T03:43:19;99417.40;;;24.54;32.78
47592;BME280;33317;33.356;-117.184;2024-03-17T03:45:49;99422.37;;;23.99;33.48
47592;BME280;33317;33.356;-117.184;2024-03-17T03:48:17;99424.51;;;23.90;33.61
47592;BME280;33317;33.356;-117.184;2024-03-17T03:50:46;99426.45;;;23.90;33.56
47592;BME280;33317;33.356;-117.184;2024-03-17T03:53:15;99427.88;;;24.15;33.08
47592;BME280;33317;33.356;-117.184;2024-03-17T03:55:45;99431.88;;;24.38;33.33
47592;BME280;33317;33.356;-117.184;2024-03-17T03:58:13;99440.50;;;23.70;33.93
47592;BME280;33317;33.356;-117.184;2024-03-17T04:00:41;99443.54;;;24.21;33.59
47592;BME280;33317;33.356;-117.184;2024-03-17T04:03:10;99449.46;;;23.90;33.68
47592;BME280;33317;33.356;-117.184;2024-03-17T04:05:38;99450.90;;;23.96;33.62
47592;BME280;33317;33.356;-117.184;2024-03-17T04:08:06;99450.08;;;23.99;33.53
47592;BME280;33317;33.356;-117.184;2024-03-17T04:10:35;99448.62;;;24.27;33.22
47592;BME280;33317;33.356;-117.184;2024-03-17T04:13:04;99451.72;;;24.25;33.16
47592;BME280;33317;33.356;-117.184;2024-03-17T04:15:32;99449.95;;;24.25;32.97
47592;BME280;33317;33.356;-117.184;2024-03-17T04:18:01;99452.17;;;24.40;32.98
47592;BME280;33317;33.356;-117.184;2024-03-17T04:20:29;99451.60;;;23.80;33.73
47592;BME280;33317;33.356;-117.184;2024-03-17T04:22:58;99449.95;;;24.21;33.48
47592;BME280;33317;33.356;-117.184;2024-03-17T04:25:27;99451.83;;;23.76;34.09
47592;BME280;33317;33.356;-117.184;2024-03-17T04:27:55;99449.49;;;24.05;34.05
47592;BME280;33317;33.356;-117.184;2024-03-17T04:30:24;99451.93;;;24.13;33.93
47592;BME280;33317;33.356;-117.184;2024-03-17T04:32:52;99455.48;;;23.90;33.88
47592;BME280;33317;33.356;-117.184;2024-03-17T04:35:21;99456.86;;;24.12;33.88
47592;BME280;33317;33.356;-117.184;2024-03-17T04:37:50;99460.74;;;23.71;34.17
47592;BME280;33317;33.356;-117.184;2024-03-17T04:40:20;99461.58;;;23.94;33.90
47592;BME280;33317;33.356;-117.184;2024-03-17T04:42:47;99463.13;;;22.99;34.69
47592;BME280;33317;33.356;-117.184;2024-03-17T04:45:16;99465.16;;;23.03;34.75
47592;BME280;33317;33.356;-117.184;2024-03-17T04:47:45;99467.70;;;23.45;34.71
47592;BME280;33317;33.356;-117.184;2024-03-17T04:50:13;99469.29;;;23.45;34.77
47592;BME280;33317;33.356;-117.184;2024-03-17T04:52:41;99470.81;;;23.37;34.85
47592;BME280;33317;33.356;-117.184;2024-03-17T04:55:09;99476.86;;;23.27;34.67
47592;BME280;33317;33.356;-117.184;2024-03-17T04:57:38;99480.08;;;23.15;35.12
47592;BME280;33317;33.356;-117.184;2024-03-17T05:00:07;99483.87;;;23.05;35.04
47592;BME280;33317;33.356;-117.184;2024-03-17T05:02:35;99486.70;;;22.94;35.50
47592;BME280;33317;33.356;-117.184;2024-03-17T05:05:05;99486.40;;;22.89;35.48
47592;BME280;33317;33.356;-117.184;2024-03-17T05:07:35;99489.51;;;23.11;35.27
47592;BME280;33317;33.356;-117.184;2024-03-17T05:10:03;99490.72;;;22.87;35.04
47592;BME280;33317;33.356;-117.184;2024-03-17T05:12:31;99494.66;;;22.84;35.42
47592;BME280;33317;33.356;-117.184;2024-03-17T05:15:00;99495.46;;;22.91;35.40
47592;BME280;33317;33.356;-117.184;2024-03-17T05:17:28;99494.23;;;23.25;34.72
47592;BME280;33317;33.356;-117.184;2024-03-17T05:19:57;99494.01;;;23.35;35.05
47592;BME280;33317;33.356;-117.184;2024-03-17T05:22:25;99495.76;;;23.25;34.86
47592;BME280;33317;33.356;-117.184;2024-03-17T05:24:53;99493.57;;;22.68;35.66
47592;BME280;33317;33.356;-117.184;2024-03-17T05:27:22;99492.72;;;23.11;34.99
47592;BME280;33317;33.356;-117.184;2024-03-17T05:29:50;99496.12;;;23.06;35.09
47592;BME280;33317;33.356;-117.184;2024-03-17T05:32:18;99500.61;;;23.21;34.86
47592;BME280;33317;33.356;-117.184;2024-03-17T05:34:47;99502.84;;;23.87;33.96
47592;BME280;33317;33.356;-117.184;2024-03-17T05:37:16;99505.49;;;23.80;33.83
47592;BME280;33317;33.356;-117.184;2024-03-17T05:39:45;99509.17;;;23.78;33.86
47592;BME280;33317;33.356;-117.184;2024-03-17T05:42:13;99509.05;;;23.09;34.66
47592;BME280;33317;33.356;-117.184;2024-03-17T05:44:41;99511.35;;;23.80;33.98
47592;BME280;33317;33.356;-117.184;2024-03-17T05:47:10;99506.74;;;23.10;34.63
47592;BME280;33317;33.356;-117.184;2024-03-17T05:49:39;99509.52;;;23.59;33.41
47592;BME280;33317;33.356;-117.184;2024-03-17T05:52:08;99510.57;;;24.11;32.88
47592;BME280;33317;33.356;-117.184;2024-03-17T05:54:36;99508.36;;;23.67;33.91
47592;BME280;33317;33.356;-117.184;2024-03-17T05:57:05;99517.20;;;23.74;33.38
47592;BME280;33317;33.356;-117.184;2024-03-17T05:59:34;99524.40;;;23.90;33.65
47592;BME280;33317;33.356;-117.184;2024-03-17T06:02:02;99528.57;;;23.39;33.92
47592;BME280;33317;33.356;-117.184;2024-03-17T06:04:31;99531.97;;;22.66;35.03
47592;BME280;33317;33.356;-117.184;2024-03-17T06:06:59;99532.97;;;22.95;34.83
47592;BME280;33317;33.356;-117.184;2024-03-17T06:09:27;99528.49;;;22.41;35.64
47592;BME280;33317;33.356;-117.184;2024-03-17T06:11:56;99525.76;;;22.48;35.56
47592;BME280;33317;33.356;-117.184;2024-03-17T06:14:24;99526.47;;;22.33;36.10
47592;BME280;33317;33.356;-117.184;2024-03-17T06:16:52;99526.99;;;22.24;36.12
47592;BME280;33317;33.356;-117.184;2024-03-17T06:19:21;99521.99;;;22.33;36.34
47592;BME280;33317;33.356;-117.184;2024-03-17T06:21:49;99524.10;;;22.27;36.47
47592;BME280;33317;33.356;-117.184;2024-03-17T06:24:17;99525.75;;;21.94;36.50
47592;BME280;33317;33.356;-117.184;2024-03-17T06:26:46;99526.09;;;21.70;36.80
47592;BME280;33317;33.356;-117.184;2024-03-17T06:29:14;99528.16;;;21.55;37.32
47592;BME280;33317;33.356;-117.184;2024-03-17T06:31:43;99527.67;;;21.97;36.74
47592;BME280;33317;33.356;-117.184;2024-03-17T06:34:11;99526.35;;;21.36;36.85
47592;BME280;33317;33.356;-117.184;2024-03-17T06:36:39;99520.64;;;21.69;36.68
47592;BME280;33317;33.356;-117.184;2024-03-17T06:39:08;99519.47;;;21.45;37.03
47592;BME280;33317;33.356;-117.184;2024-03-17T06:41:36;99521.17;;;21.43;37.03
47592;BME280;33317;33.356;-117.184;2024-03-17T06:44:04;99516.33;;;21.75;36.91
47592;BME280;33317;33.356;-117.184;2024-03-17T06:46:33;99514.07;;;21.47;37.35
47592;BME280;33317;33.356;-117.184;2024-03-17T06:49:01;99518.61;;;21.40;37.48
47592;BME280;33317;33.356;-117.184;2024-03-17T06:51:30;99518.85;;;21.04;38.00
47592;BME280;33317;33.356;-117.184;2024-03-17T06:53:58;99520.75;;;20.75;37.98
47592;BME280;33317;33.356;-117.184;2024-03-17T06:56:26;99520.78;;;20.88;38.10
47592;BME280;33317;33.356;-117.184;2024-03-17T06:58:55;99517.04;;;20.69;38.44
47592;BME280;33317;33.356;-117.184;2024-03-17T07:01:24;99515.46;;;20.92;38.40
47592;BME280;33317;33.356;-117.184;2024-03-17T07:03:52;99513.90;;;20.48;38.77
47592;BME280;33317;33.356;-117.184;2024-03-17T07:06:20;99516.11;;;20.41;38.85
47592;BME280;33317;33.356;-117.184;2024-03-17T07:08:48;99515.80;;;20.27;39.08
47592;BME280;33317;33.356;-117.184;2024-03-17T07:11:17;99515.13;;;20.39;38.80
47592;BME280;33317;33.356;-117.184;2024-03-17T07:13:45;99514.36;;;20.55;38.89
47592;BME280;33317;33.356;-117.184;2024-03-17T07:16:14;99515.82;;;20.18;39.16
47592;BME280;33317;33.356;-117.184;2024-03-17T07:18:42;99518.12;;;20.17;39.10
47592;BME280;33317;33.356;-117.184;2024-03-17T07:21:11;99516.72;;;20.35;39.18
47592;BME280;33317;33.356;-117.184;2024-03-17T07:23:39;99513.28;;;20.38;38.77
47592;BME280;33317;33.356;-117.184;2024-03-17T07:26:07;99514.70;;;20.85;38.68
47592;BME280;33317;33.356;-117.184;2024-03-17T07:28:36;99520.94;;;20.18;38.96
47592;BME280;33317;33.356;-117.184;2024-03-17T07:31:04;99524.98;;;20.22;38.80
47592;BME280;33317;33.356;-117.184;2024-03-17T07:33:32;99528.32;;;20.56;39.01
47592;BME280;33317;33.356;-117.184;2024-03-17T07:36:01;99534.57;;;20.51;38.76
47592;BME280;33317;33.356;-117.184;2024-03-17T07:38:30;99533.88;;;20.01;39.24
47592;BME280;33317;33.356;-117.184;2024-03-17T07:41:00;99532.53;;;20.23;39.57
47592;BME280;33317;33.356;-117.184;2024-03-17T07:43:30;99529.51;;;19.80;39.48
47592;BME280;33317;33.356;-117.184;2024-03-17T07:46:01;99524.69;;;20.03;39.41
47592;BME280;33317;33.356;-117.184;2024-03-17T07:48:30;99523.65;;;20.27;39.26
47592;BME280;33317;33.356;-117.184;2024-03-17T07:51:00;99531.03;;;20.19;39.45
47592;BME280;33317;33.356;-117.184;2024-03-17T07:53:28;99536.54;;;20.48;38.99
47592;BME280;33317;33.356;-117.184;2024-03-17T07:55:59;99544.39;;;20.14;39.54
47592;BME280;33317;33.356;-117.184;2024-03-17T07:58:29;99545.14;;;20.12;39.19
47592;BME280;33317;33.356;-117.184;2024-03-17T08:00:59;99548.47;;;20.31;39.17
47592;BME280;33317;33.356;-117.184;2024-03-17T08:03:29;99544.06;;;20.12;39.04
47592;BME280;33317;33.356;-117.184;2024-03-17T08:05:58;99535.31;;;20.45;38.90
47592;BME280;33317;33.356;-117.184;2024-03-17T08:08:27;99535.50;;;19.94;39.35
47592;BME280;33317;33.356;-117.184;2024-03-17T08:10:55;99536.16;;;20.06;39.07
47592;BME280;33317;33.356;-117.184;2024-03-17T08:13:24;99539.95;;;19.95;39.14
47592;BME280;33317;33.356;-117.184;2024-03-17T08:15:57;99540.27;;;20.13;39.31
47592;BME280;33317;33.356;-117.184;2024-03-17T08:18:26;99537.21;;;20.11;39.25
47592;BME280;33317;33.356;-117.184;2024-03-17T08:20:54;99538.27;;;20.07;39.38
47592;BME280;33317;33.356;-117.184;2024-03-17T08:23:23;99537.42;;;20.02;39.39
47592;BME280;33317;33.356;-117.184;2024-03-17T08:25:53;99539.21;;;19.99;39.43
47592;BME280;33317;33.356;-117.184;2024-03-17T08:28:22;99540.69;;;19.97;39.42
47592;BME280;33317;33.356;-117.184;2024-03-17T08:30:54;99546.02;;;19.85;39.66
47592;BME280;33317;33.356;-117.184;2024-03-17T08:33:23;99547.82;;;19.58;39.67
47592;BME280;33317;33.356;-117.184;2024-03-17T08:35:55;99552.56;;;19.73;39.78
47592;BME280;33317;33.356;-117.184;2024-03-17T08:38:24;99554.01;;;19.64;39.82
47592;BME280;33317;33.356;-117.184;2024-03-17T08:40:54;99557.16;;;19.70;39.72
47592;BME280;33317;33.356;-117.184;2024-03-17T08:43:23;99555.22;;;19.55;39.89
47592;BME280;33317;33.356;-117.184;2024-03-17T08:45:59;99553.07;;;19.42;39.77
47592;BME280;33317;33.356;-117.184;2024-03-17T08:48:28;99549.68;;;19.65;39.73
47592;BME280;33317;33.356;-117.184;2024-03-17T08:50:56;99549.03;;;19.17;39.99
47592;BME280;33317;33.356;-117.184;2024-03-17T08:53:25;99544.09;;;19.28;40.37
47592;BME280;33317;33.356;-117.184;2024-03-17T08:55:53;99544.62;;;19.56;40.35
47592;BME280;33317;33.356;-117.184;2024-03-17T08:58:21;99546.43;;;19.26;40.37
47592;BME280;33317;33.356;-117.184;2024-03-17T09:00:50;99546.02;;;19.19;40.50
47592;BME280;33317;33.356;-117.184;2024-03-17T09:03:18;99544.86;;;19.50;40.25
47592;BME280;33317;33.356;-117.184;2024-03-17T09:05:48;99545.60;;;19.41;40.28
47592;BME280;33317;33.356;-117.184;2024-03-17T09:08:19;99540.45;;;19.68;40.37
47592;BME280;33317;33.356;-117.184;2024-03-17T09:10:49;99532.50;;;19.35;40.40
47592;BME280;33317;33.356;-117.184;2024-03-17T09:13:19;99531.60;;;19.17;40.41
47592;BME280;33317;33.356;-117.184;2024-03-17T09:15:52;99530.89;;;19.46;40.64
47592;BME280;33317;33.356;-117.184;2024-03-17T09:18:20;99532.45;;;19.10;40.38
47592;BME280;33317;33.356;-117.184;2024-03-17T09:20:57;99536.52;;;19.16;40.26
47592;BME280;33317;33.356;-117.184;2024-03-17T09:23:25;99539.87;;;19.05;40.46
47592;BME280;33317;33.356;-117.184;2024-03-17T09:25:56;99542.06;;;19.26;40.52
47592;BME280;33317;33.356;-117.184;2024-03-17T09:28:25;99541.81;;;19.16;40.66
47592;BME280;33317;33.356;-117.184;2024-03-17T09:30:53;99538.65;;;19.26;40.59
47592;BME280;33317;33.356;-117.184;2024-03-17T09:33:22;99542.99;;;19.09;40.61
47592;BME280;33317;33.356;-117.184;2024-03-17T09:35:58;99546.04;;;18.88;40.62
47592;BME280;33317;33.356;-117.184;2024-03-17T09:38:27;99546.93;;;19.03;40.74
47592;BME280;33317;33.356;-117.184;2024-03-17T09:40:56;99549.29;;;18.73;40.91
47592;BME280;33317;33.356;-117.184;2024-03-17T09:43:25;99546.31;;;19.01;40.77
47592;BME280;33317;33.356;-117.184;2024-03-17T09:45:54;99543.56;;;19.00;40.75
47592;BME280;33317;33.356;-117.184;2024-03-17T09:48:24;99537.93;;;19.28;40.65
47592;BME280;33317;33.356;-117.184;2024-03-17T09:50:53;99537.23;;;19.02;40.69
47592;BME280;33317;33.356;-117.184;2024-03-17T09:53:25;99535.02;;;18.92;40.85
47592;BME280;33317;33.356;-117.184;2024-03-17T09:55:57;99533.13;;;18.61;40.91
47592;BME280;33317;33.356;-117.184;2024-03-17T09:58:25;99531.80;;;19.07;40.82
47592;BME280;33317;33.356;-117.184;2024-03-17T10:00:54;99529.84;;;19.10;40.74
47592;BME280;33317;33.356;-117.184;2024-03-17T10:03:54;99529.44;;;18.51;40.97
47592;BME280;33317;33.356;-117.184;2024-03-17T10:06:23;99529.39;;;18.79;40.86
47592;BME280;33317;33.356;-117.184;2024-03-17T10:08:54;99522.15;;;18.81;40.85
47592;BME280;33317;33.356;-117.184;2024-03-17T10:11:24;99516.74;;;19.12;40.68
47592;BME280;33317;33.356;-117.184;2024-03-17T10:14:01;99514.85;;;18.95;40.56
47592;BME280;33317;33.356;-117.184;2024-03-17T10:16:30;99518.79;;;19.03;40.39
47592;BME280;33317;33.356;-117.184;2024-03-17T10:19:07;99518.35;;;18.64;40.57
47592;BME280;33317;33.356;-117.184;2024-03-17T10:21:37;99514.22;;;18.94;40.49
47592;BME280;33317;33.356;-117.184;2024-03-17T10:24:08;99510.53;;;18.93;40.47
47592;BME280;33317;33.356;-117.184;2024-03-17T10:26:41;99510.05;;;19.17;40.45
47592;BME280;33317;33.356;-117.184;2024-03-17T10:29:28;99506.11;;;18.93;40.39
47592;BME280;33317;33.356;-117.184;2024-03-17T10:31:59;99503.81;;;18.97;40.43
47592;BME280;33317;33.356;-117.184;2024-03-17T10:34:28;99502.46;;;18.93;40.03
47592;BME280;33317;33.356;-117.184;2024-03-17T10:37:08;99502.44;;;19.08;40.16
47592;BME280;33317;33.356;-117.184;2024-03-17T10:39:37;99499.69;;;18.97;40.37
47592;BME280;33317;33.356;-117.184;2024-03-17T10:42:07;99497.51;;;19.15;39.93
47592;BME280;33317;33.356;-117.184;2024-03-17T10:44:37;99493.10;;;19.13;39.93
47592;BME280;33317;33.356;-117.184;2024-03-17T10:47:06;99490.72;;;19.06;40.08
47592;BME280;33317;33.356;-117.184;2024-03-17T10:49:36;99490.50;;;19.11;40.05
47592;BME280;33317;33.356;-117.184;2024-03-17T10:52:07;99489.70;;;19.13;39.80
47592;BME280;33317;33.356;-117.184;2024-03-17T10:54:35;99487.02;;;18.86;40.33
47592;BME280;33317;33.356;-117.184;2024-03-17T10:57:13;99482.66;;;19.14;40.29
47592;BME280;33317;33.356;-117.184;2024-03-17T10:59:48;99480.78;;;18.84;39.95
47592;BME280;33317;33.356;-117.184;2024-03-17T11:02:21;99481.47;;;19.34;39.89
47592;BME280;33317;33.356;-117.184;2024-03-17T11:04:50;99483.43;;;19.13;39.71
47592;BME280;33317;33.356;-117.184;2024-03-17T11:07:19;99480.23;;;19.23;40.03
47592;BME280;33317;33.356;-117.184;2024-03-17T11:09:48;99480.40;;;19.14;40.06
47592;BME280;33317;33.356;-117.184;2024-03-17T11:12:50;99477.23;;;18.72;39.91
47592;BME280;33317;33.356;-117.184;2024-03-17T11:15:51;99474.28;;;19.08;40.12
47592;BME280;33317;33.356;-117.184;2024-03-17T11:18:52;99473.05;;;18.55;40.01
47592;BME280;33317;33.356;-117.184;2024-03-17T11:21:22;99470.27;;;18.85;40.07
47592;BME280;33317;33.356;-117.184;2024-03-17T11:23:59;99472.48;;;18.74;40.11
47592;BME280;33317;33.356;-117.184;2024-03-17T11:26:30;99473.39;;;18.90;40.28
47592;BME280;33317;33.356;-117.184;2024-03-17T11:28:59;99468.69;;;18.64;40.63
47592;BME280;33317;33.356;-117.184;2024-03-17T11:31:44;99467.94;;;18.47;40.50
47592;BME280;33317;33.356;-117.184;2024-03-17T11:34:33;99469.85;;;18.66;40.29
47592;BME280;33317;33.356;-117.184;2024-03-17T11:37:03;99473.06;;;18.58;40.65
47592;BME280;33317;33.356;-117.184;2024-03-17T11:39:56;99471.71;;;18.55;40.73
47592;BME280;33317;33.356;-117.184;2024-03-17T11:42:27;99462.58;;;18.48;40.28
47592;BME280;33317;33.356;-117.184;2024-03-17T11:44:59;99458.68;;;18.44;40.87
47592;BME280;33317;33.356;-117.184;2024-03-17T11:47:37;99457.69;;;18.35;40.68
47592;BME280;33317;33.356;-117.184;2024-03-17T11:50:08;99452.52;;;18.18;41.08
47592;BME280;33317;33.356;-117.184;2024-03-17T11:52:38;99452.26;;;18.07;41.25
47592;BME280;33317;33.356;-117.184;2024-03-17T11:55:16;99456.80;;;18.11;41.24
47592;BME280;33317;33.356;-117.184;2024-03-17T11:57:46;99465.85;;;18.13;41.14
47592;BME280;33317;33.356;-117.184;2024-03-17T12:00:21;99469.35;;;17.93;41.37
47592;BME280;33317;33.356;-117.184;2024-03-17T12:02:50;99474.79;;;17.88;41.59
47592;BME280;33317;33.356;-117.184;2024-03-17T12:05:18;99475.88;;;18.10;41.15
47592;BME280;33317;33.356;-117.184;2024-03-17T12:07:46;99476.11;;;17.99;41.31
47592;BME280;33317;33.356;-117.184;2024-03-17T12:10:15;99483.87;;;17.89;41.49
47592;BME280;33317;33.356;-117.184;2024-03-17T12:12:47;99489.27;;;17.95;41.21
47592;BME280;33317;33.356;-117.184;2024-03-17T12:15:18;99491.00;;;17.94;41.28
47592;BME280;33317;33.356;-117.184;2024-03-17T12:17:51;99494.79;;;17.89;41.24
47592;BME280;33317;33.356;-117.184;2024-03-17T12:20:20;99494.84;;;17.85;41.29
47592;BME280;33317;33.356;-117.184;2024-03-17T12:22:49;99499.83;;;17.82;41.30
47592;BME280;33317;33.356;-117.184;2024-03-17T12:25:19;99505.39;;;18.42;41.19
47592;BME280;33317;33.356;-117.184;2024-03-17T12:27:48;99505.93;;;18.22;40.97
47592;BME280;33317;33.356;-117.184;2024-03-17T12:30:16;99505.01;;;17.91;41.14
47592;BME280;33317;33.356;-117.184;2024-03-17T12:32:45;99506.49;;;17.76;41.38
47592;BME280;33317;33.356;-117.184;2024-03-17T12:35:14;99505.52;;;17.81;41.37
47592;BME280;33317;33.356;-117.184;2024-03-17T12:37:45;99501.87;;;17.78;41.40
47592;BME280;33317;33.356;-117.184;2024-03-17T12:40:21;99495.77;;;18.21;41.35
47592;BME280;33317;33.356;-117.184;2024-03-17T12:42:51;99493.14;;;17.70;41.42